sensor_id;sensor_type;location;lat;lon;timestamp;pressure;altitude;pressure_sealevel;temperature;humidity
26865;BME280;40618;51.166;10.322;2024-02-26T00:01:44;95958.06;;;1.11;82.09
26865;BME280;40618;51.166;10.322;2024-02-26T00:04:13;95955.50;;;1.11;81.88
26865;BME280;40618;51.166;10.322;2024-02-26T00:06:39;95949.56;;;1.10;82.33
26865;BME280;40618;51.166;10.322;2024-02-26T00:09:08;95952.97;;;1.09;82.20
26865;BME280;40618;51.166;10.322;2024-02-26T00:11:37;95942.00;;;1.06;81.94
26865;BME280;40618;51.166;10.322;2024-02-26T00:14:03;95947.09;;;1.06;81.82
26865;BME280;40618;51.166;10.322;2024-02-26T00:16:29;95942.00;;;1.06;82.61
26865;BME280;40618;51.166;10.322;2024-02-26T00:18:56;95942.00;;;1.06;82.14
26865;BME280;40618;51.166;10.322;2024-02-26T00:21:22;95933.50;;;1.07;82.14
26865;BME280;40618;51.166;10.322;2024-02-26T00:23:53;95935.16;;;1.08;82.52
26865;BME280;40618;51.166;10.322;2024-02-26T00:26:19;95935.16;;;1.08;82.46
26865;BME280;40618;51.166;10.322;2024-02-26T00:28:44;95930.06;;;1.08;81.75
26865;BME280;40618;51.166;10.322;2024-02-26T00:31:10;95930.94;;;1.07;82.22
26865;BME280;40618;51.166;10.322;2024-02-26T00:33:36;95928.41;;;1.07;82.00
26865;BME280;40618;51.166;10.322;2024-02-26T00:36:02;95926.69;;;1.07;82.17
26865;BME280;40618;51.166;10.322;2024-02-26T00:38:28;95920.72;;;1.08;82.07
26865;BME280;40618;51.166;10.322;2024-02-26T00:40:54;95917.28;;;1.09;82.84
26865;BME280;40618;51.166;10.322;2024-02-26T00:43:19;95925.84;;;1.05;82.02
26865;BME280;40618;51.166;10.322;2024-02-26T00:45:45;95921.59;;;1.06;82.88
26865;BME280;40618;51.166;10.322;2024-02-26T00:48:12;95927.56;;;1.05;82.38
26865;BME280;40618;51.166;10.322;2024-02-26T00:50:39;95918.22;;;1.04;82.64
26865;BME280;40618;51.166;10.322;2024-02-26T00:53:07;95917.38;;;1.05;82.13
26865;BME280;40618;51.166;10.322;2024-02-26T00:55:34;95916.53;;;1.04;82.86
26865;BME280;40618;51.166;10.322;2024-02-26T00:58:00;95919.06;;;1.06;82.87
26865;BME280;40618;51.166;10.322;2024-02-26T01:00:26;95920.75;;;1.07;82.25
26865;BME280;40618;51.166;10.322;2024-02-26T01:02:51;95927.53;;;1.06;82.76
26865;BME280;40618;51.166;10.322;2024-02-26T01:05:18;95924.94;;;1.09;82.14
26865;BME280;40618;51.166;10.322;2024-02-26T01:07:45;95918.16;;;1.08;82.80
26865;BME280;40618;51.166;10.322;2024-02-26T01:10:12;95928.41;;;1.07;82.72
26865;BME280;40618;51.166;10.322;2024-02-26T01:12:37;95927.56;;;1.05;82.70
26865;BME280;40618;51.166;10.322;2024-02-26T01:15:03;95931.88;;;1.03;82.25
26865;BME280;40618;51.166;10.322;2024-02-26T01:17:29;95929.31;;;1.03;82.59
26865;BME280;40618;51.166;10.322;2024-02-26T01:19:55;95926.75;;;1.03;82.52
26865;BME280;40618;51.166;10.322;2024-02-26T01:22:21;95925.03;;;1.03;82.97
26865;BME280;40618;51.166;10.322;2024-02-26T01:24:47;95925.91;;;1.02;82.97
26865;BME280;40618;51.166;10.322;2024-02-26T01:27:13;95924.22;;;1.03;82.96
26865;BME280;40618;51.166;10.322;2024-02-26T01:29:41;95908.06;;;1.02;82.96
26865;BME280;40618;51.166;10.322;2024-02-26T01:32:07;95917.41;;;1.03;82.46
26865;BME280;40618;51.166;10.322;2024-02-26T01:34:33;95897.88;;;1.02;82.75
26865;BME280;40618;51.166;10.322;2024-02-26T01:36:59;95907.16;;;1.05;82.75
26865;BME280;40618;51.166;10.322;2024-02-26T01:39:24;95913.13;;;1.04;83.16
26865;BME280;40618;51.166;10.322;2024-02-26T01:41:50;95909.78;;;1.01;82.51
26865;BME280;40618;51.166;10.322;2024-02-26T01:44:16;95904.69;;;1.01;82.44
26865;BME280;40618;51.166;10.322;2024-02-26T01:46:41;95902.13;;;1.01;82.59
26865;BME280;40618;51.166;10.322;2024-02-26T01:49:11;95904.69;;;1.01;82.89
26865;BME280;40618;51.166;10.322;2024-02-26T01:51:39;95901.28;;;1.01;82.54
26865;BME280;40618;51.166;10.322;2024-02-26T01:54:07;95908.91;;;1.03;83.24
26865;BME280;40618;51.166;10.322;2024-02-26T01:56:35;95898.72;;;1.03;82.96
26865;BME280;40618;51.166;10.322;2024-02-26T01:59:03;95901.28;;;1.03;82.67
26865;BME280;40618;51.166;10.322;2024-02-26T02:01:32;95898.72;;;1.01;83.62
26865;BME280;40618;51.166;10.322;2024-02-26T02:04:00;95899.59;;;1.01;82.92
26865;BME280;40618;51.166;10.322;2024-02-26T02:06:27;95903.81;;;1.03;82.93
26865;BME280;40618;51.166;10.322;2024-02-26T02:08:56;95902.13;;;1.01;83.26
26865;BME280;40618;51.166;10.322;2024-02-26T02:11:22;95909.75;;;1.03;83.28
26865;BME280;40618;51.166;10.322;2024-02-26T02:13:47;95916.53;;;1.04;82.84
26865;BME280;40618;51.166;10.322;2024-02-26T02:16:13;95912.34;;;1.01;82.73
26865;BME280;40618;51.166;10.322;2024-02-26T02:18:39;95903.00;;;1.00;82.90
26865;BME280;40618;51.166;10.322;2024-02-26T02:21:05;95911.47;;;1.01;82.80
26865;BME280;40618;51.166;10.322;2024-02-26T02:23:30;95903.00;;;1.00;82.90
26865;BME280;40618;51.166;10.322;2024-02-26T02:25:57;95900.41;;;1.02;83.46
26865;BME280;40618;51.166;10.322;2024-02-26T02:28:26;95919.09;;;1.04;82.89
26865;BME280;40618;51.166;10.322;2024-02-26T02:30:53;95906.31;;;1.06;83.15
26865;BME280;40618;51.166;10.322;2024-02-26T02:33:20;95918.19;;;1.05;82.93
26865;BME280;40618;51.166;10.322;2024-02-26T02:35:47;95913.97;;;1.06;82.53
26865;BME280;40618;51.166;10.322;2024-02-26T02:38:16;95912.31;;;1.03;83.23
26865;BME280;40618;51.166;10.322;2024-02-26T02:40:41;95913.13;;;1.04;83.32
26865;BME280;40618;51.166;10.322;2024-02-26T02:43:07;95911.44;;;1.04;82.81
26865;BME280;40618;51.166;10.322;2024-02-26T02:45:33;95914.84;;;1.03;83.46
26865;BME280;40618;51.166;10.322;2024-02-26T02:47:58;95909.78;;;1.01;82.87
26865;BME280;40618;51.166;10.322;2024-02-26T02:50:24;95909.81;;;1.00;82.95
26865;BME280;40618;51.166;10.322;2024-02-26T02:52:49;95915.72;;;1.02;83.59
26865;BME280;40618;51.166;10.322;2024-02-26T02:55:16;95908.91;;;1.03;83.28
26865;BME280;40618;51.166;10.322;2024-02-26T02:57:43;95904.63;;;1.05;83.11
26865;BME280;40618;51.166;10.322;2024-02-26T03:00:11;95902.03;;;1.06;83.65
26865;BME280;40618;51.166;10.322;2024-02-26T03:02:38;95903.78;;;1.04;83.31
26865;BME280;40618;51.166;10.322;2024-02-26T03:05:04;95905.47;;;1.04;83.31
26865;BME280;40618;51.166;10.322;2024-02-26T03:07:30;95901.28;;;1.03;83.60
26865;BME280;40618;51.166;10.322;2024-02-26T03:09:56;95897.06;;;1.00;83.49
26865;BME280;40618;51.166;10.322;2024-02-26T03:12:22;95903.03;;;0.99;82.73
26865;BME280;40618;51.166;10.322;2024-02-26T03:14:47;95914.06;;;0.99;83.25
26865;BME280;40618;51.166;10.322;2024-02-26T03:17:13;95914.91;;;0.98;83.46
26865;BME280;40618;51.166;10.322;2024-02-26T03:19:39;95914.97;;;0.95;83.63
26865;BME280;40618;51.166;10.322;2024-02-26T03:22:05;95913.31;;;0.93;83.17
26865;BME280;40618;51.166;10.322;2024-02-26T03:24:30;95918.41;;;0.93;82.89
26865;BME280;40618;51.166;10.322;2024-02-26T03:26:56;95914.19;;;0.90;83.04
26865;BME280;40618;51.166;10.322;2024-02-26T03:29:22;95910.84;;;0.88;83.13
26865;BME280;40618;51.166;10.322;2024-02-26T03:31:48;95914.25;;;0.87;82.99
26865;BME280;40618;51.166;10.322;2024-02-26T03:34:13;95915.97;;;0.87;82.84
26865;BME280;40618;51.166;10.322;2024-02-26T03:36:40;95912.56;;;0.86;83.15
26865;BME280;40618;51.166;10.322;2024-02-26T03:39:07;95911.72;;;0.87;83.51
26865;BME280;40618;51.166;10.322;2024-02-26T03:41:35;95911.72;;;0.87;83.16
26865;BME280;40618;51.166;10.322;2024-02-26T03:44:01;95915.97;;;0.87;83.70
26865;BME280;40618;51.166;10.322;2024-02-26T03:46:27;95920.22;;;0.86;83.20
26865;BME280;40618;51.166;10.322;2024-02-26T03:48:56;95918.50;;;0.88;83.07
26865;BME280;40618;51.166;10.322;2024-02-26T03:51:21;95920.19;;;0.89;83.17
26865;BME280;40618;51.166;10.322;2024-02-26T03:53:47;95908.28;;;0.90;83.03
26865;BME280;40618;51.166;10.322;2024-02-26T03:56:12;95915.88;;;0.91;83.35
26865;BME280;40618;51.166;10.322;2024-02-26T03:58:38;95914.16;;;0.93;83.99
26865;BME280;40618;51.166;10.322;2024-02-26T04:01:07;95919.25;;;0.95;83.71
26865;BME280;40618;51.166;10.322;2024-02-26T04:03:33;95914.13;;;0.96;83.51
26865;BME280;40618;51.166;10.322;2024-02-26T04:05:59;95906.44;;;0.98;83.08
26865;BME280;40618;51.166;10.322;2024-02-26T04:08:25;95911.50;;;0.99;83.38
26865;BME280;40618;51.166;10.322;2024-02-26T04:10:51;95908.91;;;1.03;83.66
26865;BME280;40618;51.166;10.322;2024-02-26T04:13:17;95913.97;;;1.06;83.64
26865;BME280;40618;51.166;10.322;2024-02-26T04:15:43;95915.63;;;1.08;83.79
26865;BME280;40618;51.166;10.322;2024-02-26T04:18:09;95904.53;;;1.11;83.87
26865;BME280;40618;51.166;10.322;2024-02-26T04:20:35;95906.16;;;1.13;83.78
26865;BME280;40618;51.166;10.322;2024-02-26T04:23:00;95906.16;;;1.15;83.94
26865;BME280;40618;51.166;10.322;2024-02-26T04:25:27;95913.75;;;1.18;83.83
26865;BME280;40618;51.166;10.322;2024-02-26T04:27:55;95910.34;;;1.19;83.58
26865;BME280;40618;51.166;10.322;2024-02-26T04:30:20;95916.22;;;1.21;84.24
26865;BME280;40618;51.166;10.322;2024-02-26T04:32:46;95906.78;;;1.26;84.17
26865;BME280;40618;51.166;10.322;2024-02-26T04:35:12;95901.69;;;1.26;83.99
26865;BME280;40618;51.166;10.322;2024-02-26T04:37:37;95904.19;;;1.29;83.82
26865;BME280;40618;51.166;10.322;2024-02-26T04:40:03;95903.28;;;1.32;84.22
26865;BME280;40618;51.166;10.322;2024-02-26T04:42:30;95899.00;;;1.34;84.08
26865;BME280;40618;51.166;10.322;2024-02-26T04:44:55;95897.25;;;1.36;83.88
26865;BME280;40618;51.166;10.322;2024-02-26T04:47:21;95897.25;;;1.36;84.33
26865;BME280;40618;51.166;10.322;2024-02-26T04:49:49;95901.50;;;1.37;83.55
26865;BME280;40618;51.166;10.322;2024-02-26T04:52:15;95901.47;;;1.39;83.57
26865;BME280;40618;51.166;10.322;2024-02-26T04:54:41;95907.44;;;1.38;84.29
26865;BME280;40618;51.166;10.322;2024-02-26T04:57:07;95906.53;;;1.40;84.51
26865;BME280;40618;51.166;10.322;2024-02-26T04:59:32;95905.72;;;1.40;84.06
26865;BME280;40618;51.166;10.322;2024-02-26T05:01:58;95905.66;;;1.41;84.60
26865;BME280;40618;51.166;10.322;2024-02-26T05:04:25;95903.94;;;1.42;83.75
26865;BME280;40618;51.166;10.322;2024-02-26T05:06:50;95907.38;;;1.41;84.36
26865;BME280;40618;51.166;10.322;2024-02-26T05:09:16;95909.91;;;1.42;83.91
26865;BME280;40618;51.166;10.322;2024-02-26T05:11:41;95920.94;;;1.43;84.03
26865;BME280;40618;51.166;10.322;2024-02-26T05:14:07;95917.53;;;1.44;83.93
26865;BME280;40618;51.166;10.322;2024-02-26T05:16:33;95914.97;;;1.44;84.32
26865;BME280;40618;51.166;10.322;2024-02-26T05:19:00;95926.00;;;1.44;84.19
26865;BME280;40618;51.166;10.322;2024-02-26T05:21:26;95924.31;;;1.43;84.57
26865;BME280;40618;51.166;10.322;2024-02-26T05:23:52;95929.44;;;1.43;84.40
26865;BME280;40618;51.166;10.322;2024-02-26T05:26:23;95926.03;;;1.43;84.36
26865;BME280;40618;51.166;10.322;2024-02-26T05:28:49;95932.00;;;1.42;84.28
26865;BME280;40618;51.166;10.322;2024-02-26T05:31:16;95931.16;;;1.43;83.82
26865;BME280;40618;51.166;10.322;2024-02-26T05:33:44;95937.06;;;1.43;84.12
26865;BME280;40618;51.166;10.322;2024-02-26T05:36:09;95937.94;;;1.44;84.00
26865;BME280;40618;51.166;10.322;2024-02-26T05:38:35;95933.66;;;1.44;84.14
26865;BME280;40618;51.166;10.322;2024-02-26T05:41:01;95947.25;;;1.45;83.94
26865;BME280;40618;51.166;10.322;2024-02-26T05:43:26;95933.63;;;1.46;84.51
26865;BME280;40618;51.166;10.322;2024-02-26T05:45:53;95937.03;;;1.46;84.21
26865;BME280;40618;51.166;10.322;2024-02-26T05:48:19;95937.88;;;1.47;84.59
26865;BME280;40618;51.166;10.322;2024-02-26T05:50:45;95942.97;;;1.47;84.03
26865;BME280;40618;51.166;10.322;2024-02-26T05:53:11;95943.81;;;1.47;83.83
26865;BME280;40618;51.166;10.322;2024-02-26T05:55:39;95944.66;;;1.48;84.12
26865;BME280;40618;51.166;10.322;2024-02-26T05:58:05;95949.75;;;1.48;84.19
26865;BME280;40618;51.166;10.322;2024-02-26T06:00:31;95949.75;;;1.48;84.22
26865;BME280;40618;51.166;10.322;2024-02-26T06:02:58;95952.31;;;1.48;84.47
26865;BME280;40618;51.166;10.322;2024-02-26T06:05:23;95948.03;;;1.48;84.19
26865;BME280;40618;51.166;10.322;2024-02-26T06:07:49;95951.44;;;1.47;84.87
26865;BME280;40618;51.166;10.322;2024-02-26T06:10:14;95950.63;;;1.47;84.41
26865;BME280;40618;51.166;10.322;2024-02-26T06:12:40;95957.44;;;1.46;84.15
26865;BME280;40618;51.166;10.322;2024-02-26T06:15:07;95946.38;;;1.46;83.99
26865;BME280;40618;51.166;10.322;2024-02-26T06:17:34;95948.09;;;1.45;84.31
26865;BME280;40618;51.166;10.322;2024-02-26T06:20:00;95927.69;;;1.45;84.62
26865;BME280;40618;51.166;10.322;2024-02-26T06:22:26;95936.22;;;1.44;84.58
26865;BME280;40618;51.166;10.322;2024-02-26T06:24:52;95931.94;;;1.45;84.94
26865;BME280;40618;51.166;10.322;2024-02-26T06:27:18;95939.59;;;1.45;84.30
26865;BME280;40618;51.166;10.322;2024-02-26T06:29:43;95956.59;;;1.46;85.07
26865;BME280;40618;51.166;10.322;2024-02-26T06:32:10;95966.75;;;1.47;85.20
26865;BME280;40618;51.166;10.322;2024-02-26T06:34:35;95966.72;;;1.49;85.23
26865;BME280;40618;51.166;10.322;2024-02-26T06:37:03;95977.72;;;1.52;84.92
26865;BME280;40618;51.166;10.322;2024-02-26T06:39:29;95982.81;;;1.54;84.94
26865;BME280;40618;51.166;10.322;2024-02-26T06:41:56;95981.06;;;1.56;85.49
26865;BME280;40618;51.166;10.322;2024-02-26T06:44:26;95982.72;;;1.57;84.64
26865;BME280;40618;51.166;10.322;2024-02-26T06:46:59;95978.47;;;1.59;85.41
26865;BME280;40618;51.166;10.322;2024-02-26T06:49:26;95976.69;;;1.61;85.46
26865;BME280;40618;51.166;10.322;2024-02-26T06:51:53;95980.16;;;1.60;85.57
26865;BME280;40618;51.166;10.322;2024-02-26T06:54:19;95990.28;;;1.63;85.13
26865;BME280;40618;51.166;10.322;2024-02-26T06:56:44;95986.00;;;1.64;85.11
26865;BME280;40618;51.166;10.322;2024-02-26T06:59:10;95985.16;;;1.65;85.34
26865;BME280;40618;51.166;10.322;2024-02-26T07:01:36;95993.63;;;1.67;84.75
26865;BME280;40618;51.166;10.322;2024-02-26T07:04:01;95990.19;;;1.69;85.77
26865;BME280;40618;51.166;10.322;2024-02-26T07:06:29;95988.44;;;1.72;85.38
26865;BME280;40618;51.166;10.322;2024-02-26T07:08:55;95994.38;;;1.74;85.20
26865;BME280;40618;51.166;10.322;2024-02-26T07:11:21;95998.56;;;1.75;85.68
26865;BME280;40618;51.166;10.322;2024-02-26T07:13:46;95990.88;;;1.76;84.84
26865;BME280;40618;51.166;10.322;2024-02-26T07:16:12;95996.00;;;1.78;84.96
26865;BME280;40618;51.166;10.322;2024-02-26T07:18:41;96004.44;;;1.80;85.39
26865;BME280;40618;51.166;10.322;2024-02-26T07:21:09;96001.00;;;1.82;85.62
26865;BME280;40618;51.166;10.322;2024-02-26T07:23:36;96010.34;;;1.83;85.69
26865;BME280;40618;51.166;10.322;2024-02-26T07:26:02;96009.44;;;1.84;85.83
26865;BME280;40618;51.166;10.322;2024-02-26T07:28:27;96010.25;;;1.88;85.84
26865;BME280;40618;51.166;10.322;2024-02-26T07:30:53;96015.28;;;1.91;85.40
26865;BME280;40618;51.166;10.322;2024-02-26T07:33:20;96006.72;;;1.94;85.47
26865;BME280;40618;51.166;10.322;2024-02-26T07:35:45;96005.84;;;1.96;85.73
26865;BME280;40618;51.166;10.322;2024-02-26T07:38:11;96014.31;;;1.98;85.18
26865;BME280;40618;51.166;10.322;2024-02-26T07:40:38;96004.88;;;2.02;85.77
26865;BME280;40618;51.166;10.322;2024-02-26T07:43:04;96011.66;;;2.03;85.33
26865;BME280;40618;51.166;10.322;2024-02-26T07:45:29;96007.38;;;2.05;85.72
26865;BME280;40618;51.166;10.322;2024-02-26T07:47:55;96012.44;;;2.08;85.12
26865;BME280;40618;51.166;10.322;2024-02-26T07:50:21;96016.63;;;2.11;85.65
26865;BME280;40618;51.166;10.322;2024-02-26T07:52:47;96021.66;;;2.14;85.75
26865;BME280;40618;51.166;10.322;2024-02-26T07:55:12;96030.13;;;2.16;85.73
26865;BME280;40618;51.166;10.322;2024-02-26T07:57:42;96030.09;;;2.19;86.00
26865;BME280;40618;51.166;10.322;2024-02-26T08:00:09;96028.31;;;2.21;86.12
26865;BME280;40618;51.166;10.322;2024-02-26T08:02:36;96025.69;;;2.24;85.42
26865;BME280;40618;51.166;10.322;2024-02-26T08:05:02;96035.06;;;2.25;85.84
26865;BME280;40618;51.166;10.322;2024-02-26T08:07:29;96029.91;;;2.27;86.07
26865;BME280;40618;51.166;10.322;2024-02-26T08:09:54;96028.22;;;2.27;85.26
26865;BME280;40618;51.166;10.322;2024-02-26T08:12:20;96032.44;;;2.30;85.72
26865;BME280;40618;51.166;10.322;2024-02-26T08:14:46;96028.19;;;2.29;85.31
26865;BME280;40618;51.166;10.322;2024-02-26T08:17:11;96031.53;;;2.31;85.75
26865;BME280;40618;51.166;10.322;2024-02-26T08:19:37;96037.47;;;2.33;85.89
26865;BME280;40618;51.166;10.322;2024-02-26T08:22:03;96031.50;;;2.34;86.20
26865;BME280;40618;51.166;10.322;2024-02-26T08:24:28;96033.16;;;2.35;85.35
26865;BME280;40618;51.166;10.322;2024-02-26T08:26:54;96030.59;;;2.36;85.55
26865;BME280;40618;51.166;10.322;2024-02-26T08:29:20;96034.81;;;2.37;86.09
26865;BME280;40618;51.166;10.322;2024-02-26T08:31:46;96043.28;;;2.40;86.04
26865;BME280;40618;51.166;10.322;2024-02-26T08:34:11;96033.88;;;2.42;85.54
26865;BME280;40618;51.166;10.322;2024-02-26T08:36:38;96033.84;;;2.45;85.62
26865;BME280;40618;51.166;10.322;2024-02-26T08:39:04;96038.03;;;2.46;85.85
26865;BME280;40618;51.166;10.322;2024-02-26T08:41:30;96040.56;;;2.49;86.20
26865;BME280;40618;51.166;10.322;2024-02-26T08:43:56;96039.63;;;2.53;85.91
26865;BME280;40618;51.166;10.322;2024-02-26T08:46:23;96052.28;;;2.58;85.78
26865;BME280;40618;51.166;10.322;2024-02-26T08:48:49;96047.09;;;2.61;86.20
26865;BME280;40618;51.166;10.322;2024-02-26T08:51:15;96053.84;;;2.65;85.87
26865;BME280;40618;51.166;10.322;2024-02-26T08:53:41;96052.84;;;2.70;85.51
26865;BME280;40618;51.166;10.322;2024-02-26T08:56:06;96057.94;;;2.74;85.78
26865;BME280;40618;51.166;10.322;2024-02-26T08:58:32;96050.16;;;2.78;86.41
26865;BME280;40618;51.166;10.322;2024-02-26T09:00:58;96051.78;;;2.81;86.08
26865;BME280;40618;51.166;10.322;2024-02-26T09:03:23;96055.97;;;2.85;85.93
26865;BME280;40618;51.166;10.322;2024-02-26T09:05:49;96056.72;;;2.90;85.68
26865;BME280;40618;51.166;10.322;2024-02-26T09:08:16;96048.13;;;2.93;85.83
26865;BME280;40618;51.166;10.322;2024-02-26T09:10:43;96053.13;;;2.97;86.20
26865;BME280;40618;51.166;10.322;2024-02-26T09:13:08;96048.75;;;3.02;85.96
26865;BME280;40618;51.166;10.322;2024-02-26T09:15:35;96043.50;;;3.09;85.84
26865;BME280;40618;51.166;10.322;2024-02-26T09:18:01;96037.38;;;3.14;86.24
26865;BME280;40618;51.166;10.322;2024-02-26T09:20:29;96044.16;;;3.17;86.10
26865;BME280;40618;51.166;10.322;2024-02-26T09:22:55;96049.28;;;3.17;86.27
26865;BME280;40618;51.166;10.322;2024-02-26T09:25:21;96050.97;;;3.18;86.01
26865;BME280;40618;51.166;10.322;2024-02-26T09:27:47;96044.13;;;3.18;85.66
26865;BME280;40618;51.166;10.322;2024-02-26T09:30:13;96044.91;;;3.22;85.88
26865;BME280;40618;51.166;10.322;2024-02-26T09:32:40;96040.38;;;3.32;86.12
26865;BME280;40618;51.166;10.322;2024-02-26T09:35:06;96041.91;;;3.41;86.03
26865;BME280;40618;51.166;10.322;2024-02-26T09:37:33;96040.09;;;3.44;85.80
26865;BME280;40618;51.166;10.322;2024-02-26T09:39:59;96042.69;;;3.43;86.17
26865;BME280;40618;51.166;10.322;2024-02-26T09:42:26;96056.31;;;3.45;85.86
26865;BME280;40618;51.166;10.322;2024-02-26T09:44:54;96044.28;;;3.47;86.18
26865;BME280;40618;51.166;10.322;2024-02-26T09:47:31;96059.56;;;3.50;85.74
26865;BME280;40618;51.166;10.322;2024-02-26T09:49:59;96054.44;;;3.50;85.71
26865;BME280;40618;51.166;10.322;2024-02-26T09:52:28;96062.94;;;3.52;85.39
26865;BME280;40618;51.166;10.322;2024-02-26T09:54:58;96067.25;;;3.51;85.60
26865;BME280;40618;51.166;10.322;2024-02-26T09:57:25;96064.69;;;3.50;85.87
26865;BME280;40618;51.166;10.322;2024-02-26T09:59:55;96056.88;;;3.56;85.59
26865;BME280;40618;51.166;10.322;2024-02-26T10:02:28;96057.56;;;3.63;86.05
26865;BME280;40618;51.166;10.322;2024-02-26T10:04:57;96069.31;;;3.70;85.73
26865;BME280;40618;51.166;10.322;2024-02-26T10:07:28;96062.34;;;3.77;86.20
26865;BME280;40618;51.166;10.322;2024-02-26T10:09:55;96065.63;;;3.82;86.03
26865;BME280;40618;51.166;10.322;2024-02-26T10:12:21;96060.41;;;3.85;85.72
26865;BME280;40618;51.166;10.322;2024-02-26T10:14:48;96069.75;;;3.87;85.97
26865;BME280;40618;51.166;10.322;2024-02-26T10:17:14;96077.38;;;3.89;85.63
26865;BME280;40618;51.166;10.322;2024-02-26T10:19:40;96077.28;;;3.92;86.25
26865;BME280;40618;51.166;10.322;2024-02-26T10:22:06;96084.09;;;3.93;85.63
26865;BME280;40618;51.166;10.322;2024-02-26T10:24:32;96082.34;;;3.95;85.98
26865;BME280;40618;51.166;10.322;2024-02-26T10:26:59;96076.19;;;4.02;86.09
26865;BME280;40618;51.166;10.322;2024-02-26T10:29:25;96086.34;;;4.05;85.80
26865;BME280;40618;51.166;10.322;2024-02-26T10:31:52;96081.03;;;4.13;85.83
26865;BME280;40618;51.166;10.322;2024-02-26T10:34:18;96077.50;;;4.17;85.55
26865;BME280;40618;51.166;10.322;2024-02-26T10:36:45;96080.81;;;4.21;86.00
26865;BME280;40618;51.166;10.322;2024-02-26T10:39:12;96091.81;;;4.24;85.73
26865;BME280;40618;51.166;10.322;2024-02-26T10:41:40;96091.00;;;4.24;85.55
26865;BME280;40618;51.166;10.322;2024-02-26T10:44:10;96095.22;;;4.25;85.45
26865;BME280;40618;51.166;10.322;2024-02-26T10:46:39;96104.44;;;4.32;86.10
26865;BME280;40618;51.166;10.322;2024-02-26T10:49:13;96107.75;;;4.36;85.73
26865;BME280;40618;51.166;10.322;2024-02-26T10:51:44;96118.91;;;4.35;85.87
26865;BME280;40618;51.166;10.322;2024-02-26T10:54:15;96119.78;;;4.34;85.57
26865;BME280;40618;51.166;10.322;2024-02-26T10:56:42;96117.16;;;4.35;85.60
26865;BME280;40618;51.166;10.322;2024-02-26T10:59:11;96119.56;;;4.42;85.85
26865;BME280;40618;51.166;10.322;2024-02-26T11:01:40;96116.81;;;4.48;85.77
26865;BME280;40618;51.166;10.322;2024-02-26T11:04:08;96102.31;;;4.47;85.64
26865;BME280;40618;51.166;10.322;2024-02-26T11:06:36;96109.13;;;4.48;85.62
26865;BME280;40618;51.166;10.322;2024-02-26T11:09:04;96102.16;;;4.53;85.54
26865;BME280;40618;51.166;10.322;2024-02-26T11:11:34;96114.13;;;4.52;85.37
26865;BME280;40618;51.166;10.322;2024-02-26T11:14:03;96114.16;;;4.51;85.50
26865;BME280;40618;51.166;10.322;2024-02-26T11:16:30;96115.94;;;4.49;85.31
26865;BME280;40618;51.166;10.322;2024-02-26T11:19:02;96116.00;;;4.47;85.70
26865;BME280;40618;51.166;10.322;2024-02-26T11:21:28;96116.81;;;4.48;86.04
26865;BME280;40618;51.166;10.322;2024-02-26T11:24:13;96105.75;;;4.47;85.72
26865;BME280;40618;51.166;10.322;2024-02-26T11:27:07;96109.13;;;4.48;85.50
26865;BME280;40618;51.166;10.322;2024-02-26T11:29:43;96107.44;;;4.47;85.81
26865;BME280;40618;51.166;10.322;2024-02-26T11:32:14;96110.94;;;4.44;85.78
26865;BME280;40618;51.166;10.322;2024-02-26T11:34:40;96111.03;;;4.41;85.53
26865;BME280;40618;51.166;10.322;2024-02-26T11:37:14;96111.06;;;4.39;85.77
26865;BME280;40618;51.166;10.322;2024-02-26T11:39:41;96118.00;;;4.36;85.53
26865;BME280;40618;51.166;10.322;2024-02-26T11:42:08;96117.97;;;4.37;85.65
26865;BME280;40618;51.166;10.322;2024-02-26T11:44:34;96115.41;;;4.37;85.54
26865;BME280;40618;51.166;10.322;2024-02-26T11:47:33;96122.28;;;4.35;85.54
26865;BME280;40618;51.166;10.322;2024-02-26T11:50:32;96124.13;;;4.30;85.75
26865;BME280;40618;51.166;10.322;2024-02-26T11:53:33;96119.81;;;4.32;85.72
26865;BME280;40618;51.166;10.322;2024-02-26T11:59:09;96109.28;;;4.43;85.76
26865;BME280;40618;51.166;10.322;2024-02-26T12:01:42;96112.56;;;4.47;86.13
26865;BME280;40618;51.166;10.322;2024-02-26T12:04:20;96112.63;;;4.45;85.79
26865;BME280;40618;51.166;10.322;2024-02-26T12:06:52;96110.97;;;4.43;86.21
26865;BME280;40618;51.166;10.322;2024-02-26T12:09:40;96120.34;;;4.44;85.93
26865;BME280;40618;51.166;10.322;2024-02-26T12:12:09;96126.28;;;4.46;86.09
26865;BME280;40618;51.166;10.322;2024-02-26T12:14:40;96132.22;;;4.48;85.87
26865;BME280;40618;51.166;10.322;2024-02-26T12:17:21;96130.41;;;4.51;86.36
26865;BME280;40618;51.166;10.322;2024-02-26T12:19:48;96128.59;;;4.55;85.97
26865;BME280;40618;51.166;10.322;2024-02-26T12:22:14;96136.22;;;4.58;86.16
26865;BME280;40618;51.166;10.322;2024-02-26T12:24:41;96133.59;;;4.60;86.10
26865;BME280;40618;51.166;10.322;2024-02-26T12:27:09;96134.44;;;4.60;85.94
26865;BME280;40618;51.166;10.322;2024-02-26T12:29:36;96146.47;;;4.58;85.63
26865;BME280;40618;51.166;10.322;2024-02-26T12:32:05;96156.75;;;4.56;86.13
26865;BME280;40618;51.166;10.322;2024-02-26T12:34:33;96154.94;;;4.60;86.09
26865;BME280;40618;51.166;10.322;2024-02-26T12:36:59;96154.03;;;4.63;86.04
26865;BME280;40618;51.166;10.322;2024-02-26T12:39:25;96160.78;;;4.65;86.37
26865;BME280;40618;51.166;10.322;2024-02-26T12:41:51;96159.09;;;4.64;85.91
26865;BME280;40618;51.166;10.322;2024-02-26T12:44:17;96165.03;;;4.66;86.29
26865;BME280;40618;51.166;10.322;2024-02-26T12:46:43;96164.91;;;4.71;86.38
26865;BME280;40618;51.166;10.322;2024-02-26T12:49:15;96167.34;;;4.75;86.21
26865;BME280;40618;51.166;10.322;2024-02-26T12:51:45;96167.28;;;4.79;86.27
26865;BME280;40618;51.166;10.322;2024-02-26T12:54:11;96163.78;;;4.81;86.49
26865;BME280;40618;51.166;10.322;2024-02-26T12:56:38;96167.09;;;4.85;86.22
26865;BME280;40618;51.166;10.322;2024-02-26T12:59:04;96166.13;;;4.89;86.68
26865;BME280;40618;51.166;10.322;2024-02-26T13:01:30;96158.31;;;4.92;86.17
26865;BME280;40618;51.166;10.322;2024-02-26T13:03:56;96157.41;;;4.95;86.71